Time,TemperatureF,DewpointF,PressureIn,WindDirection,WindDirectionDegrees,WindSpeedMPH,WindSpeedGustMPH,Humidity,HourlyPrecipIn,Conditions,Clouds,dailyrainin,SoftwareType,DateUTC
2013-04-27 00:01:00,71.6,67.5,30.04,SE,140,11.5,11.5,87,0.00,CLR,,0.00,WeatherDisplay:10.37,2013-04-27 05:01:00,
2013-04-27 00:06:00,71.6,67.5,30.04,ESE,105,9.2,9.2,87,0.00,CLR,,0.00,WeatherDisplay:10.37,2013-04-27 05:06:00,
2013-04-27 00:11:00,71.6,67.9,30.04,SSE,154,11.5,11.5,88,0.00,CLR,,0.00,WeatherDisplay:10.37,2013-04-27 05:11:00,
2013-04-27 00:16:00,71.6,67.9,30.04,SE,130,10.4,10.4,88,0.00,CLR,,0.00,WeatherDisplay:10.37,2013-04-27 05:16:00,
2013-04-27 00:21:00,71.5,67.8,30.04,ESE,103,11.5,11.5,88,0.00,CLR,,0.00,WeatherDisplay:10.37,2013-04-27 05:21:00,
2013-04-27 00:26:00,71.5,67.8,30.04,SE,130,10.4,10.4,88,0.00,CLR,,0.00,WeatherDisplay:10.37,2013-04-27 05:26:00,
2013-04-27 00:31:00,71.5,67.8,30.04,SE,131,12.7,12.7,88,0.00,CLR,,0.00,WeatherDisplay:10.37,2013-04-27 05:31:00,
2013-04-27 00:36:00,71.5,67.8,30.04,ESE,117,9.2,9.2,88,0.00,CLR,,0.00,WeatherDisplay:10.37,2013-04-27 05:36:00,
2013-04-27 00:41:00,71.4,67.7,30.05,SE,145,11.5,11.5,88,0.00,CLR,,0.00,WeatherDisplay:10.37,2013-04-27 05:41:00,
2013-04-27 00:46:00,71.5,67.8,30.05,SE,139,9.2,9.2,88,0.00,CLR,,0.00,WeatherDisplay:10.37,2013-04-27 05:46:00,
2013-04-27 00:51:00,71.5,67.8,30.05,SE,131,11.5,11.5,88,0.00,CLR,,0.00,WeatherDisplay:10.37,2013-04-27 05:51:00,
2013-04-27 00:56:00,71.5,67.8,30.05,SE,144,6.9,6.9,88,0.00,CLR,,0.00,WeatherDisplay:10.37,2013-04-27 05:56:00,
2013-04-27 01:01:00,71.5,67.8,30.06,SSW,207,6.9,6.9,88,0.00,CLR,,0.00,WeatherDisplay:10.37,2013-04-27 06:01:00,
2013-04-27 01:06:00,71.5,67.8,30.06,SSE,153,4.6,4.6,88,0.00,CLR,,0.00,WeatherDisplay:10.37,2013-04-27 06:06:00,
2013-04-27 01:11:00,71.5,67.8,30.06,SE,139,6.9,6.9,88,0.00,CLR,,0.00,WeatherDisplay:10.37,2013-04-27 06:11:00,
2013-04-27 01:16:00,71.5,67.8,30.06,SSE,159,8.0,8.0,88,0.00,CLR,,0.00,WeatherDisplay:10.37,2013-04-27 06:16:00,
2013-04-27 01:21:00,71.5,67.8,30.07,SSE,162,10.4,10.4,88,0.00,CLR,,0.00,WeatherDisplay:10.37,2013-04-27 06:21:00,
2013-04-27 01:26:00,71.5,67.8,30.06,SSE,154,11.5,11.5,88,0.00,CLR,,0.00,WeatherDisplay:10.37,2013-04-27 06:26:00,
2013-04-27 01:31:00,71.5,67.8,30.06,SSE,156,12.0,12.0,88,0.00,CLR,,0.00,WeatherDisplay:10.37,2013-04-27 06:31:00,
2013-04-27 01:36:00,71.6,67.9,30.06,South,173,11.5,11.5,88,0.00,CLR,,0.00,WeatherDisplay:10.37,2013-04-27 06:36:00,
2013-04-27 01:41:00,71.6,67.9,30.05,SSE,156,12.7,12.7,88,0.00,CLR,,0.00,WeatherDisplay:10.37,2013-04-27 06:41:00,
2013-04-27 01:46:00,71.7,67.6,30.05,SSE,148,10.4,10.4,87,0.00,CLR,,0.00,WeatherDisplay:10.37,2013-04-27 06:46:00,
2013-04-27 01:51:00,71.6,67.9,30.05,SE,131,11.5,11.5,88,0.00,CLR,,0.00,WeatherDisplay:10.37,2013-04-27 06:51:00,
2013-04-27 01:56:00,71.6,67.9,30.05,SSE,153,11.5,11.5,88,0.00,CLR,,0.00,WeatherDisplay:10.37,2013-04-27 06:56:00,
2013-04-27 02:01:00,71.6,67.9,30.05,SSE,159,10.4,10.4,88,0.00,CLR,,0.00,WeatherDisplay:10.37,2013-04-27 07:01:00,
2013-04-27 02:06:00,71.5,67.8,30.03,SE,139,9.2,9.2,88,0.00,CLR,,0.00,WeatherDisplay:10.37,2013-04-27 07:06:00,
2013-04-27 02:11:00,71.5,67.8,30.03,SE,134,9.2,9.2,88,0.00,CLR,,0.00,WeatherDisplay:10.37,2013-04-27 07:11:00,
2013-04-27 02:16:00,71.5,67.8,30.03,East,101,10.4,10.4,88,0.00,CLR,,0.00,WeatherDisplay:10.37,2013-04-27 07:16:00,
2013-04-27 02:21:00,71.5,67.8,30.03,SE,128,11.5,11.5,88,0.00,CLR,,0.00,WeatherDisplay:10.37,2013-04-27 07:21:00,
2013-04-27 02:26:00,71.5,67.8,30.02,SE,125,12.7,12.7,88,0.00,CLR,,0.00,WeatherDisplay:10.37,2013-04-27 07:26:00,
2013-04-27 02:31:00,71.5,67.8,30.02,SE,128,12.7,12.7,88,0.00,CLR,,0.00,WeatherDisplay:10.37,2013-04-27 07:31:00,
2013-04-27 02:36:00,71.4,67.7,30.02,South,183,11.5,11.5,88,0.00,CLR,,0.00,WeatherDisplay:10.37,2013-04-27 07:36:00,
2013-04-27 02:41:00,71.4,67.7,30.02,SSE,153,11.5,11.5,88,0.00,CLR,,0.00,WeatherDisplay:10.37,2013-04-27 07:41:00,
2013-04-27 02:46:00,71.4,68.0,30.02,SE,139,11.5,11.5,89,0.00,CLR,,0.00,WeatherDisplay:10.37,2013-04-27 07:46:00,
2013-04-27 02:51:00,71.3,67.9,30.02,SE,138,9.2,9.2,89,0.00,CLR,,0.00,WeatherDisplay:10.37,2013-04-27 07:51:00,
2013-04-27 02:56:00,71.2,67.8,30.01,SE,131,11.5,11.5,89,0.00,CLR,,0.00,WeatherDisplay:10.37,2013-04-27 07:56:00,
2013-04-27 03:01:00,71.0,67.6,30.01,SE,143,6.0,6.0,89,0.00,CLR,,0.00,WeatherDisplay:10.37,2013-04-27 08:01:00,
2013-04-27 03:06:00,70.9,67.5,30.01,SE,144,8.1,8.1,89,0.00,CLR,,0.00,WeatherDisplay:10.37,2013-04-27 08:06:00,
2013-04-27 03:11:00,70.7,67.6,30.01,SSE,153,8.1,8.1,90,0.00,CLR,,0.00,WeatherDisplay:10.37,2013-04-27 08:11:00,
2013-04-27 03:16:00,70.7,67.6,30.01,SSE,147,6.0,6.0,90,0.00,CLR,,0.00,WeatherDisplay:10.37,2013-04-27 08:16:00,
2013-04-27 03:21:00,70.6,67.5,30.01,SSE,153,5.8,5.8,90,0.00,CLR,,0.00,WeatherDisplay:10.37,2013-04-27 08:21:00,
2013-04-27 03:26:00,70.4,67.3,30.01,SE,134,8.1,8.1,90,0.00,CLR,,0.00,WeatherDisplay:10.37,2013-04-27 08:26:00,
2013-04-27 03:31:00,70.3,67.2,30.01,SSE,161,7.0,7.0,90,0.00,CLR,,0.00,WeatherDisplay:10.37,2013-04-27 08:31:00,
2013-04-27 03:36:00,70.3,67.5,30.01,SE,140,10.4,10.4,91,0.00,CLR,,0.00,WeatherDisplay:10.37,2013-04-27 08:36:00,
2013-04-27 03:41:00,70.2,67.4,30.00,SE,142,6.9,6.9,91,0.00,CLR,,0.00,WeatherDisplay:10.37,2013-04-27 08:41:00,
2013-04-27 03:46:00,70.1,67.3,30.00,SE,133,9.0,9.0,91,0.00,CLR,,0.00,WeatherDisplay:10.37,2013-04-27 08:46:00,
2013-04-27 03:51:00,70.1,67.3,30.00,SE,136,6.9,6.9,91,0.00,CLR,,0.00,WeatherDisplay:10.37,2013-04-27 08:51:00,
2013-04-27 03:56:00,69.9,67.2,30.00,SE,139,5.8,5.8,91,0.00,CLR,,0.00,WeatherDisplay:10.37,2013-04-27 08:56:00,
2013-04-27 04:01:00,69.8,67.1,30.00,SE,139,5.8,5.8,91,0.00,CLR,,0.00,WeatherDisplay:10.37,2013-04-27 09:01:00,
2013-04-27 04:06:00,69.7,67.0,30.00,SSE,151,5.8,5.8,91,0.00,CLR,,0.00,WeatherDisplay:10.37,2013-04-27 09:06:00,
2013-04-27 04:11:00,69.6,66.9,30.00,SSE,154,3.5,3.5,91,0.00,CLR,,0.00,WeatherDisplay:10.37,2013-04-27 09:11:00,
2013-04-27 04:16:00,69.4,67.0,30.00,SSE,161,3.5,3.5,92,0.00,CLR,,0.00,WeatherDisplay:10.37,2013-04-27 09:16:00,
2013-04-27 04:21:00,69.3,66.9,30.00,SSE,167,3.5,3.5,92,0.00,CLR,,0.00,WeatherDisplay:10.37,2013-04-27 09:21:00,
2013-04-27 04:26:00,69.1,66.7,30.00,SSE,155,5.8,5.8,92,0.00,CLR,,0.00,WeatherDisplay:10.37,2013-04-27 09:26:00,
2013-04-27 04:31:00,68.9,66.5,30.00,SSE,156,5.8,5.8,92,0.00,CLR,,0.00,WeatherDisplay:10.37,2013-04-27 09:31:00,
2013-04-27 04:36:00,68.6,66.2,29.99,SSE,164,3.5,3.5,92,0.00,CLR,,0.00,WeatherDisplay:10.37,2013-04-27 09:36:00,
2013-04-27 04:41:00,68.5,66.4,29.99,SSE,160,4.0,4.0,93,0.00,CLR,,0.00,WeatherDisplay:10.37,2013-04-27 09:41:00,
2013-04-27 04:46:00,68.4,66.3,29.99,South,172,4.6,4.6,93,0.00,CLR,,0.00,WeatherDisplay:10.37,2013-04-27 09:46:00,
2013-04-27 04:51:00,68.3,66.2,29.99,SSE,166,3.5,3.5,93,0.00,CLR,,0.00,WeatherDisplay:10.37,2013-04-27 09:51:00,
2013-04-27 04:56:00,68.2,66.1,29.99,SSE,153,2.3,2.3,93,0.00,CLR,,0.00,WeatherDisplay:10.37,2013-04-27 09:56:00,
2013-04-27 05:01:00,68.2,66.1,30.00,ESE,110,2.3,2.3,93,0.00,CLR,,0.00,WeatherDisplay:10.37,2013-04-27 10:01:00,
2013-04-27 05:06:00,68.2,66.1,30.00,SE,134,1.0,1.0,93,0.00,CLR,,0.00,WeatherDisplay:10.37,2013-04-27 10:06:00,
2013-04-27 05:11:00,68.2,66.1,30.00,SE,139,1.1,1.1,93,0.00,CLR,,0.00,WeatherDisplay:10.37,2013-04-27 10:11:00,
2013-04-27 05:16:00,68.2,66.1,30.00,SE,140,0.0,0.0,93,0.00,CLR,,0.00,WeatherDisplay:10.37,2013-04-27 10:16:00,
2013-04-27 05:21:00,68.1,66.0,30.00,SW,228,0.0,0.0,93,0.00,CLR,,0.00,WeatherDisplay:10.37,2013-04-27 10:21:00,
2013-04-27 05:26:00,68.1,66.3,30.00,SW,214,1.1,1.1,94,0.00,CLR,,0.00,WeatherDisplay:10.37,2013-04-27 10:26:00,
2013-04-27 05:31:00,68.1,66.3,30.00,SSW,201,0.0,0.0,94,0.00,CLR,,0.00,WeatherDisplay:10.37,2013-04-27 10:31:00,
2013-04-27 05:36:00,68.1,66.3,30.00,SSW,201,0.0,0.0,94,0.00,CLR,,0.00,WeatherDisplay:10.37,2013-04-27 10:36:00,
2013-04-27 05:41:00,68.1,66.3,30.00,SW,236,0.0,0.0,94,0.00,CLR,,0.00,WeatherDisplay:10.37,2013-04-27 10:41:00,
2013-04-27 05:46:00,68.1,66.3,30.00,WSW,250,2.3,2.3,94,0.00,CLR,,0.00,WeatherDisplay:10.37,2013-04-27 10:46:00,
2013-04-27 05:51:00,68.1,66.3,30.00,West,280,1.1,1.1,94,0.00,CLR,,0.00,WeatherDisplay:10.37,2013-04-27 10:51:00,
2013-04-27 05:56:00,68.2,66.4,30.00,WNW,283,0.0,0.0,94,0.00,CLR,,0.00,WeatherDisplay:10.37,2013-04-27 10:56:00,
2013-04-27 06:01:00,68.2,66.4,30.00,West,281,0.0,0.0,94,0.00,CLR,,0.00,WeatherDisplay:10.37,2013-04-27 11:01:00,
2013-04-27 06:06:00,68.2,66.4,30.00,WSW,245,0.0,0.0,94,0.00,CLR,,0.00,WeatherDisplay:10.37,2013-04-27 11:06:00,
2013-04-27 06:11:00,68.2,66.4,30.00,SSW,210,0.0,0.0,94,0.00,CLR,,0.00,WeatherDisplay:10.37,2013-04-27 11:11:00,
2013-04-27 06:16:00,68.1,66.3,30.01,SSW,210,0.0,0.0,94,0.00,CLR,,0.00,WeatherDisplay:10.37,2013-04-27 11:16:00,
2013-04-27 06:21:00,68.0,66.2,30.01,SSW,210,0.0,0.0,94,0.00,CLR,,0.00,WeatherDisplay:10.37,2013-04-27 11:21:00,
2013-04-27 06:26:00,68.0,66.2,30.01,SSW,210,0.0,0.0,94,0.00,CLR,,0.00,WeatherDisplay:10.37,2013-04-27 11:26:00,
2013-04-27 06:31:00,68.0,66.2,30.01,SSW,210,0.0,0.0,94,0.00,CLR,,0.00,WeatherDisplay:10.37,2013-04-27 11:31:00,
2013-04-27 06:36:00,67.9,66.1,30.01,SSW,210,0.0,0.0,94,0.00,CLR,,0.00,WeatherDisplay:10.37,2013-04-27 11:36:00,
2013-04-27 06:41:00,67.8,66.0,30.01,SSE,147,0.0,0.0,94,0.00,CLR,,0.00,WeatherDisplay:10.37,2013-04-27 11:41:00,
2013-04-27 06:46:00,67.6,65.8,30.01,SSE,147,0.0,0.0,94,0.00,CLR,,0.00,WeatherDisplay:10.37,2013-04-27 11:46:00,
2013-04-27 06:51:00,67.6,65.8,30.01,SE,146,0.0,0.0,94,0.00,CLR,,0.00,WeatherDisplay:10.37,2013-04-27 11:51:00,
2013-04-27 06:56:00,67.7,65.9,30.01,SE,146,0.0,0.0,94,0.00,CLR,,0.00,WeatherDisplay:10.37,2013-04-27 11:56:00,
2013-04-27 07:01:00,67.7,65.9,30.02,ESE,115,0.0,0.0,94,0.00,CLR,,0.00,WeatherDisplay:10.37,2013-04-27 12:01:00,
2013-04-27 07:06:00,67.7,65.9,30.02,ESE,115,0.0,0.0,94,0.00,CLR,,0.00,WeatherDisplay:10.37,2013-04-27 12:06:00,
2013-04-27 07:11:00,67.6,65.8,30.02,ENE,76,0.0,0.0,94,0.00,CLR,,0.00,WeatherDisplay:10.37,2013-04-27 12:11:00,
2013-04-27 07:16:00,67.7,65.9,30.02,ENE,63,1.1,1.1,94,0.00,CLR,,0.00,WeatherDisplay:10.37,2013-04-27 12:16:00,
2013-04-27 07:21:00,67.6,65.8,30.02,East,85,0.0,0.0,94,0.00,CLR,,0.00,WeatherDisplay:10.37,2013-04-27 12:21:00,
2013-04-27 07:26:00,67.6,65.8,30.03,East,79,0.0,0.0,94,0.00,CLR,,0.00,WeatherDisplay:10.37,2013-04-27 12:26:00,
2013-04-27 07:31:00,67.7,66.2,30.03,ENE,63,0.0,0.0,95,0.00,CLR,,0.00,WeatherDisplay:10.37,2013-04-27 12:31:00,
2013-04-27 07:36:00,67.8,66.0,30.03,NE,48,0.0,0.0,94,0.00,CLR,,0.00,WeatherDisplay:10.37,2013-04-27 12:36:00,
2013-04-27 07:41:00,67.8,66.0,30.03,North,357,0.0,0.0,94,0.00,CLR,,0.00,WeatherDisplay:10.37,2013-04-27 12:41:00,
2013-04-27 07:46:00,67.9,66.1,30.03,NNE,15,2.3,0.0,94,0.00,CLR,,0.00,WeatherDisplay:10.37,2013-04-27 12:46:00,
2013-04-27 07:51:00,68.1,66.6,30.04,NNE,33,1.1,1.1,95,0.00,CLR,,0.00,WeatherDisplay:10.37,2013-04-27 12:51:00,
2013-04-27 07:56:00,68.2,66.7,30.04,NNE,15,1.1,1.1,95,0.00,CLR,,0.00,WeatherDisplay:10.37,2013-04-27 12:56:00,
2013-04-27 08:01:00,68.3,66.5,30.04,NE,39,2.3,2.3,94,0.00,CLR,,0.00,WeatherDisplay:10.37,2013-04-27 13:01:00,
2013-04-27 08:06:00,68.5,67.0,30.04,NNE,19,2.3,2.3,95,0.00,CLR,,0.00,WeatherDisplay:10.37,2013-04-27 13:06:00,
2013-04-27 08:11:00,68.7,66.9,30.05,North,4,2.3,2.3,94,0.00,CLR,,0.00,WeatherDisplay:10.37,2013-04-27 13:11:00,
2013-04-27 08:16:00,68.9,67.1,30.05,North,9,2.3,2.3,94,0.00,CLR,,0.00,WeatherDisplay:10.37,2013-04-27 13:16:00,
2013-04-27 08:21:00,69.0,67.2,30.05,NNW,340,3.5,3.5,94,0.00,CLR,,0.00,WeatherDisplay:10.37,2013-04-27 13:21:00,
2013-04-27 08:26:00,69.2,67.4,30.05,North,359,2.3,2.3,94,0.00,CLR,,0.00,WeatherDisplay:10.37,2013-04-27 13:26:00,
2013-04-27 08:31:00,69.2,67.4,30.05,NE,37,2.3,2.3,94,0.00,CLR,,0.00,WeatherDisplay:10.37,2013-04-27 13:31:00,
2013-04-27 08:36:00,69.3,67.5,30.05,North,9,3.5,3.5,94,0.00,CLR,,0.00,WeatherDisplay:10.37,2013-04-27 13:36:00,
2013-04-27 08:41:00,69.3,67.5,30.05,NNW,333,1.1,1.1,94,0.00,CLR,,0.00,WeatherDisplay:10.37,2013-04-27 13:41:00,
2013-04-27 08:48:00,69.3,67.5,30.06,NE,34,3.5,3.5,94,0.00,CLR,,0.00,WeatherDisplay:10.37,2013-04-27 13:48:00,
2013-04-27 08:53:00,69.4,67.6,30.06,ENE,57,3.5,3.5,94,0.00,CLR,,0.00,WeatherDisplay:10.37,2013-04-27 13:53:00,
2013-04-27 08:58:00,69.5,67.7,30.06,NE,43,1.1,1.1,94,0.00,CLR,,0.00,WeatherDisplay:10.37,2013-04-27 13:58:00,
2013-04-27 09:03:00,69.5,67.4,30.06,NNE,20,3.5,3.5,93,0.00,CLR,,0.00,WeatherDisplay:10.37,2013-04-27 14:03:00,
2013-04-27 09:08:00,69.6,67.5,30.06,NNE,12,3.5,3.5,93,0.00,CLR,,0.00,WeatherDisplay:10.37,2013-04-27 14:08:00,
2013-04-27 09:13:00,69.6,67.5,30.06,NE,43,3.5,3.5,93,0.00,CLR,,0.00,WeatherDisplay:10.37,2013-04-27 14:13:00,
2013-04-27 09:18:00,69.7,67.6,30.06,ENE,63,3.0,3.0,93,0.00,CLR,,0.00,WeatherDisplay:10.37,2013-04-27 14:18:00,
2013-04-27 09:23:00,69.7,67.6,30.06,NE,34,1.1,1.1,93,0.00,CLR,,0.00,WeatherDisplay:10.37,2013-04-27 14:23:00,
2013-04-27 09:28:00,69.7,67.6,30.06,NE,41,2.3,2.3,93,0.00,CLR,,0.00,WeatherDisplay:10.37,2013-04-27 14:28:00,
2013-04-27 09:33:00,69.7,67.6,30.06,NE,43,2.3,2.3,93,0.00,CLR,,0.00,WeatherDisplay:10.37,2013-04-27 14:33:00,
2013-04-27 09:38:00,69.8,67.7,30.06,NNE,20,1.1,1.1,93,0.00,CLR,,0.00,WeatherDisplay:10.37,2013-04-27 14:38:00,
2013-04-27 09:43:00,69.8,67.7,30.06,NE,37,3.5,3.5,93,0.00,CLR,,0.00,WeatherDisplay:10.37,2013-04-27 14:43:00,
2013-04-27 09:48:00,69.8,67.7,30.06,ENE,75,3.5,3.5,93,0.00,CLR,,0.00,WeatherDisplay:10.37,2013-04-27 14:48:00,
2013-04-27 09:53:00,69.8,67.7,30.06,NE,43,2.3,2.3,93,0.00,CLR,,0.00,WeatherDisplay:10.37,2013-04-27 14:53:00,
2013-04-27 09:58:00,69.8,68.0,30.06,ENE,74,2.0,2.0,94,0.00,CLR,,0.00,WeatherDisplay:10.37,2013-04-27 14:58:00,
2013-04-27 10:03:00,69.8,68.0,30.06,NNE,32,2.3,2.3,94,0.00,CLR,,0.00,WeatherDisplay:10.37,2013-04-27 15:03:00,
2013-04-27 10:08:00,69.7,67.9,30.06,NE,56,2.3,2.3,94,0.00,CLR,,0.00,WeatherDisplay:10.37,2013-04-27 15:08:00,
2013-04-27 10:13:00,69.7,67.9,30.07,ENE,58,1.1,1.1,94,0.00,CLR,,0.00,WeatherDisplay:10.37,2013-04-27 15:13:00,
2013-04-27 10:18:00,69.7,67.9,30.07,East,82,2.3,2.3,94,0.01,RA,,0.01,WeatherDisplay:10.37,2013-04-27 15:18:00,
2013-04-27 10:23:00,69.7,67.9,30.07,ENE,73,1.0,1.0,94,0.01,RA,,0.01,WeatherDisplay:10.37,2013-04-27 15:23:00,
2013-04-27 10:28:00,69.7,67.9,30.07,NE,51,3.0,3.0,94,0.01,,,0.01,WeatherDisplay:10.37,2013-04-27 15:28:00,
2013-04-27 10:33:00,69.7,67.9,30.07,ENE,75,3.5,3.5,94,0.02,RA,,0.02,WeatherDisplay:10.37,2013-04-27 15:33:00,
2013-04-27 10:38:00,69.8,68.0,30.07,ENE,58,4.6,4.6,94,0.02,RA,,0.02,WeatherDisplay:10.37,2013-04-27 15:38:00,
2013-04-27 10:43:00,69.9,68.1,30.07,NE,44,3.5,3.5,94,0.02,CLR,,0.02,WeatherDisplay:10.37,2013-04-27 15:43:00,
2013-04-27 10:48:00,70.0,68.2,30.07,ENE,63,4.6,4.6,94,0.02,CLR,,0.02,WeatherDisplay:10.37,2013-04-27 15:48:00,
2013-04-27 10:53:00,70.0,68.2,30.07,NNE,23,3.5,3.5,94,0.02,CLR,,0.02,WeatherDisplay:10.37,2013-04-27 15:53:00,
2013-04-27 10:58:00,70.0,68.5,30.07,NE,48,3.5,3.5,95,0.02,CLR,,0.02,WeatherDisplay:10.37,2013-04-27 15:58:00,
2013-04-27 11:03:00,70.2,68.7,30.07,ENE,77,3.5,3.5,95,0.03,RA,,0.03,WeatherDisplay:10.37,2013-04-27 16:03:00,
2013-04-27 11:08:00,70.3,68.8,30.07,ENE,63,3.5,3.5,95,0.03,RA,,0.03,WeatherDisplay:10.37,2013-04-27 16:08:00,
2013-04-27 11:13:00,70.3,68.8,30.07,NNE,32,3.5,3.5,95,0.03,CLR,,0.03,WeatherDisplay:10.37,2013-04-27 16:13:00,
2013-04-27 11:18:00,70.3,68.8,30.07,East,79,2.3,2.3,95,0.02,CLR,,0.03,WeatherDisplay:10.37,2013-04-27 16:18:00,
2013-04-27 11:23:00,70.3,68.8,30.07,NE,52,3.5,3.5,95,0.02,CLR,,0.03,WeatherDisplay:10.37,2013-04-27 16:23:00,
2013-04-27 11:28:00,70.4,68.9,30.07,East,79,1.1,1.1,95,0.02,CLR,,0.03,WeatherDisplay:10.37,2013-04-27 16:28:00,
2013-04-27 11:33:00,70.5,69.0,30.07,NE,34,3.5,3.5,95,0.01,CLR,,0.03,WeatherDisplay:10.37,2013-04-27 16:33:00,
2013-04-27 11:38:00,70.5,69.0,30.07,ENE,60,1.1,1.1,95,0.01,CLR,,0.03,WeatherDisplay:10.37,2013-04-27 16:38:00,
2013-04-27 11:43:00,70.5,69.0,30.07,NE,38,2.3,2.3,95,0.01,CLR,,0.03,WeatherDisplay:10.37,2013-04-27 16:43:00,
2013-04-27 11:48:00,70.5,69.0,30.07,ENE,70,2.3,2.5,95,0.01,CLR,,0.03,WeatherDisplay:10.37,2013-04-27 16:48:00,
2013-04-27 11:53:00,70.6,69.1,30.07,NE,43,3.5,3.5,95,0.01,CLR,,0.03,WeatherDisplay:10.37,2013-04-27 16:53:00,
2013-04-27 11:58:00,70.8,69.3,30.07,NNE,12,2.3,2.3,95,0.01,CLR,,0.03,WeatherDisplay:10.37,2013-04-27 16:58:00,
2013-04-27 12:03:00,70.9,69.4,30.06,NE,56,3.5,3.5,95,0.00,CLR,,0.03,WeatherDisplay:10.37,2013-04-27 17:03:00,
2013-04-27 12:08:00,71.1,69.6,30.06,NE,46,3.5,3.5,95,0.00,CLR,,0.03,WeatherDisplay:10.37,2013-04-27 17:08:00,
2013-04-27 12:13:00,70.9,69.1,30.07,NNW,342,3.5,3.5,94,0.00,CLR,,0.03,WeatherDisplay:10.37,2013-04-27 17:13:00,
2013-04-27 12:18:00,71.1,69.6,30.06,NNE,15,2.3,2.3,95,0.00,CLR,,0.03,WeatherDisplay:10.37,2013-04-27 17:18:00,
2013-04-27 12:23:00,71.2,69.7,30.06,North,8,3.5,3.5,95,0.00,CLR,,0.03,WeatherDisplay:10.37,2013-04-27 17:23:00,
2013-04-27 12:28:00,71.2,69.4,30.06,North,4,3.5,3.5,94,0.00,CLR,,0.03,WeatherDisplay:10.37,2013-04-27 17:28:00,
2013-04-27 12:33:00,71.4,69.6,30.06,NE,40,3.5,3.5,94,0.00,CLR,,0.03,WeatherDisplay:10.37,2013-04-27 17:33:00,
2013-04-27 12:38:00,71.5,69.7,30.05,North,9,2.3,2.3,94,0.00,CLR,,0.03,WeatherDisplay:10.37,2013-04-27 17:38:00,
2013-04-27 12:43:00,71.6,69.8,30.05,NNW,339,2.3,2.3,94,0.00,CLR,,0.03,WeatherDisplay:10.37,2013-04-27 17:43:00,
2013-04-27 12:48:00,72.0,70.2,30.05,North,9,3.5,3.5,94,0.00,CLR,,0.03,WeatherDisplay:10.37,2013-04-27 17:48:00,
2013-04-27 12:53:00,72.0,70.2,30.05,NE,37,4.0,4.0,94,0.00,CLR,,0.03,WeatherDisplay:10.37,2013-04-27 17:53:00,
2013-04-27 12:58:00,72.2,70.4,30.05,North,1,2.3,2.3,94,0.00,CLR,,0.03,WeatherDisplay:10.37,2013-04-27 17:58:00,
2013-04-27 13:03:00,72.3,70.2,30.04,NE,43,3.5,3.5,93,0.00,CLR,,0.03,WeatherDisplay:10.37,2013-04-27 18:03:00,
2013-04-27 13:08:00,72.3,70.2,30.04,North,358,3.5,3.5,93,0.00,CLR,,0.03,WeatherDisplay:10.37,2013-04-27 18:08:00,
2013-04-27 13:13:00,72.5,70.4,30.04,North,359,3.5,3.5,93,0.00,CLR,,0.03,WeatherDisplay:10.37,2013-04-27 18:13:00,
2013-04-27 13:18:00,72.8,70.7,30.04,NE,56,3.5,3.5,93,0.00,CLR,,0.03,WeatherDisplay:10.37,2013-04-27 18:18:00,
2013-04-27 13:23:00,73.4,71.3,30.03,NNE,25,2.3,2.3,93,0.00,CLR,,0.03,WeatherDisplay:10.37,2013-04-27 18:23:00,
2013-04-27 13:28:00,73.7,71.2,30.03,NE,49,1.1,1.1,92,0.00,CLR,,0.03,WeatherDisplay:10.37,2013-04-27 18:28:00,
2013-04-27 13:33:00,74.2,71.4,30.03,North,1,0.0,0.1,91,0.00,CLR,,0.03,WeatherDisplay:10.37,2013-04-27 18:33:00,
2013-04-27 13:38:00,74.5,71.4,30.03,ENE,70,1.1,1.1,90,0.00,CLR,,0.03,WeatherDisplay:10.37,2013-04-27 18:38:00,
2013-04-27 13:43:00,74.5,71.0,30.02,North,354,0.0,0.0,89,0.00,CLR,,0.03,WeatherDisplay:10.37,2013-04-27 18:43:00,
2013-04-27 13:48:00,74.5,70.7,30.02,NE,56,0.0,0.0,88,0.00,CLR,,0.03,WeatherDisplay:10.37,2013-04-27 18:48:00,
2013-04-27 13:53:00,74.6,70.8,30.02,NE,34,0.0,0.0,88,0.00,CLR,,0.03,WeatherDisplay:10.37,2013-04-27 18:53:00,
2013-04-27 13:58:00,74.6,70.8,30.01,North,359,1.0,1.5,88,0.00,CLR,,0.03,WeatherDisplay:10.37,2013-04-27 18:58:00,
2013-04-27 14:03:00,75.1,71.3,30.00,North,349,3.5,3.5,88,0.00,CLR,,0.03,WeatherDisplay:10.37,2013-04-27 19:03:00,
2013-04-27 14:08:00,75.6,71.1,30.00,NNW,336,4.6,4.6,86,0.00,CLR,,0.03,WeatherDisplay:10.37,2013-04-27 19:08:00,
2013-04-27 14:13:00,75.8,71.3,30.00,North,360,3.5,3.5,86,0.00,CLR,,0.03,WeatherDisplay:10.37,2013-04-27 19:13:00,
2013-04-27 14:18:00,76.0,70.8,30.00,NE,40,7.0,7.0,84,0.00,CLR,,0.03,WeatherDisplay:10.37,2013-04-27 19:18:00,
2013-04-27 14:23:00,76.2,71.0,30.00,North,8,3.5,3.5,84,0.00,CLR,,0.03,WeatherDisplay:10.37,2013-04-27 19:23:00,
2013-04-27 14:28:00,76.6,71.7,30.00,ENE,57,2.3,2.3,85,0.00,CLR,,0.03,WeatherDisplay:10.37,2013-04-27 19:28:00,
2013-04-27 14:33:00,77.0,71.4,30.00,ENE,63,2.3,2.3,83,0.00,CLR,,0.03,WeatherDisplay:10.37,2013-04-27 19:33:00,
2013-04-27 14:38:00,77.4,71.5,29.99,NNE,32,4.6,4.6,82,0.00,CLR,,0.03,WeatherDisplay:10.37,2013-04-27 19:38:00,
2013-04-27 14:43:00,77.7,71.4,29.99,NE,34,4.6,4.6,81,0.00,CLR,,0.03,WeatherDisplay:10.37,2013-04-27 19:43:00,
2013-04-27 14:48:00,77.7,70.7,29.99,NNE,12,4.6,4.6,79,0.00,CLR,,0.03,WeatherDisplay:10.37,2013-04-27 19:48:00,
2013-04-27 14:53:00,78.0,71.3,29.99,NE,56,3.5,3.5,80,0.00,CLR,,0.03,WeatherDisplay:10.37,2013-04-27 19:53:00,
2013-04-27 14:58:00,78.3,70.9,29.99,NE,51,5.0,5.0,78,0.00,CLR,,0.03,WeatherDisplay:10.37,2013-04-27 19:58:00,
2013-04-27 15:03:00,78.6,71.5,29.98,NE,46,4.6,4.6,79,0.00,CLR,,0.03,WeatherDisplay:10.37,2013-04-27 20:03:00,
2013-04-27 15:08:00,79.1,71.6,29.99,NE,55,4.6,4.6,78,0.00,CLR,,0.03,WeatherDisplay:10.37,2013-04-27 20:08:00,
2013-04-27 15:13:00,78.7,70.5,29.98,ENE,74,6.9,6.9,76,0.00,CLR,,0.03,WeatherDisplay:10.37,2013-04-27 20:13:00,
2013-04-27 15:18:00,79.0,71.2,29.98,NE,36,4.6,4.6,77,0.00,CLR,,0.03,WeatherDisplay:10.37,2013-04-27 20:18:00,
2013-04-27 15:23:00,79.7,71.1,29.98,ENE,72,5.8,5.8,75,0.00,CLR,,0.03,WeatherDisplay:10.37,2013-04-27 20:23:00,
2013-04-27 15:28:00,79.5,70.9,29.98,NE,37,3.5,3.5,75,0.00,CLR,,0.03,WeatherDisplay:10.37,2013-04-27 20:28:00,
2013-04-27 15:33:00,79.3,70.7,29.97,ENE,57,6.9,6.9,75,0.00,CLR,,0.03,WeatherDisplay:10.37,2013-04-27 20:33:00,
2013-04-27 15:38:00,79.2,70.6,29.97,NE,37,3.5,3.5,75,0.00,CLR,,0.03,WeatherDisplay:10.37,2013-04-27 20:38:00,
2013-04-27 15:43:00,78.8,70.2,29.97,North,357,3.5,3.5,75,0.00,CLR,,0.03,WeatherDisplay:10.37,2013-04-27 20:43:00,
2013-04-27 15:48:00,78.7,70.1,29.96,NNW,340,3.5,0.0,75,0.00,CLR,,0.03,WeatherDisplay:10.37,2013-04-27 20:48:00,
2013-04-27 15:53:00,78.7,70.1,29.96,ENE,65,3.5,3.5,75,0.00,CLR,,0.03,WeatherDisplay:10.37,2013-04-27 20:53:00,
2013-04-27 15:58:00,78.5,69.9,29.96,NNW,341,3.5,3.5,75,0.00,CLR,,0.03,WeatherDisplay:10.37,2013-04-27 20:58:00,
2013-04-27 16:03:00,78.5,69.9,29.96,NE,41,4.6,4.6,75,0.00,CLR,,0.03,WeatherDisplay:10.37,2013-04-27 21:03:00,
2013-04-27 16:08:00,78.4,69.8,29.96,NNE,17,0.0,0.0,75,0.00,CLR,,0.03,WeatherDisplay:10.37,2013-04-27 21:08:00,
2013-04-27 16:13:00,78.5,70.3,29.95,NW,311,0.0,0.0,76,0.00,CLR,,0.03,WeatherDisplay:10.37,2013-04-27 21:13:00,
2013-04-27 16:18:00,78.5,69.9,29.95,NE,34,3.5,3.5,75,0.00,CLR,,0.03,WeatherDisplay:10.37,2013-04-27 21:18:00,
2013-04-27 16:23:00,78.4,69.8,29.96,NNE,27,0.0,0.3,75,0.00,CLR,,0.03,WeatherDisplay:10.37,2013-04-27 21:23:00,
2013-04-27 16:28:00,78.0,69.8,29.95,NNW,342,0.0,0.0,76,0.01,RA,,0.04,WeatherDisplay:10.37,2013-04-27 21:28:00,
2013-04-27 16:33:00,77.4,70.4,29.95,WNW,288,0.0,0.0,79,0.02,RA,,0.05,WeatherDisplay:10.37,2013-04-27 21:33:00,
2013-04-27 16:38:00,76.9,71.0,29.94,NNE,26,0.0,0.0,82,0.02,RA,,0.05,WeatherDisplay:10.37,2013-04-27 21:38:00,
2013-04-27 16:43:00,76.8,71.2,29.94,ENE,67,0.0,0.0,83,0.02,,,0.05,WeatherDisplay:10.37,2013-04-27 21:43:00,
2013-04-27 16:48:00,77.2,70.9,29.93,NNW,334,0.0,0.0,81,0.02,CLR,,0.05,WeatherDisplay:10.37,2013-04-27 21:48:00,
2013-04-27 16:53:00,77.7,71.4,29.93,NNW,334,0.0,0.0,81,0.02,CLR,,0.05,WeatherDisplay:10.37,2013-04-27 21:53:00,
2013-04-27 16:58:00,77.7,70.7,29.93,NNW,334,0.0,0.0,79,0.02,CLR,,0.05,WeatherDisplay:10.37,2013-04-27 21:58:00,
2013-04-27 17:03:00,77.9,71.2,29.93,NNW,335,0.0,0.0,80,0.02,CLR,,0.05,WeatherDisplay:10.37,2013-04-27 22:03:00,
2013-04-27 17:08:00,77.9,70.5,29.93,NNW,333,0.0,0.0,78,0.02,CLR,,0.05,WeatherDisplay:10.37,2013-04-27 22:08:00,
2013-04-27 17:13:00,77.8,70.4,29.93,North,351,0.0,0.0,78,0.02,CLR,,0.05,WeatherDisplay:10.37,2013-04-27 22:13:00,
2013-04-27 17:18:00,77.9,70.9,29.92,North,354,0.0,0.0,79,0.02,CLR,,0.05,WeatherDisplay:10.37,2013-04-27 22:18:00,
2013-04-27 17:23:00,78.2,71.5,29.92,WNW,287,0.0,0.0,80,0.02,CLR,,0.05,WeatherDisplay:10.37,2013-04-27 22:23:00,
2013-04-27 17:28:00,78.5,71.1,29.92,North,9,2.3,0.0,78,0.01,CLR,,0.05,WeatherDisplay:10.37,2013-04-27 22:28:00,
2013-04-27 17:33:00,78.6,70.8,29.93,ESE,106,0.0,0.0,77,0.00,CLR,,0.05,WeatherDisplay:10.37,2013-04-27 22:33:00,
2013-04-27 17:38:00,78.8,70.6,29.93,ESE,105,0.0,0.0,76,0.00,CLR,,0.05,WeatherDisplay:10.37,2013-04-27 22:38:00,
2013-04-27 17:43:00,78.7,70.5,29.92,NNE,25,0.0,0.0,76,0.00,CLR,,0.05,WeatherDisplay:10.37,2013-04-27 22:43:00,
2013-04-27 17:48:00,78.6,70.0,29.92,North,6,0.0,0.0,75,0.00,CLR,,0.05,WeatherDisplay:10.37,2013-04-27 22:48:00,
2013-04-27 17:53:00,78.8,70.2,29.92,ESE,109,0.0,0.0,75,0.00,CLR,,0.05,WeatherDisplay:10.37,2013-04-27 22:53:00,
2013-04-27 17:58:00,78.8,70.6,29.92,ESE,121,0.0,0.0,76,0.00,CLR,,0.05,WeatherDisplay:10.37,2013-04-27 22:58:00,
2013-04-27 18:03:00,78.8,70.6,29.92,SE,124,0.0,0.0,76,0.00,CLR,,0.05,WeatherDisplay:10.37,2013-04-27 23:03:00,
2013-04-27 18:08:00,78.6,70.8,29.92,SE,131,2.3,2.3,77,0.00,CLR,,0.05,WeatherDisplay:10.37,2013-04-27 23:08:00,
2013-04-27 18:13:00,78.5,71.1,29.91,SSE,151,2.3,2.3,78,0.00,CLR,,0.05,WeatherDisplay:10.37,2013-04-27 23:13:00,
2013-04-27 18:18:00,78.4,71.3,29.91,SSE,153,0.0,0.0,79,0.00,CLR,,0.05,WeatherDisplay:10.37,2013-04-27 23:18:00,
2013-04-27 18:23:00,78.4,71.3,29.91,SSE,153,0.0,0.0,79,0.00,CLR,,0.05,WeatherDisplay:10.37,2013-04-27 23:23:00,
2013-04-27 18:28:00,78.3,71.2,29.91,South,169,0.0,0.0,79,0.00,CLR,,0.05,WeatherDisplay:10.37,2013-04-27 23:28:00,
2013-04-27 18:33:00,78.4,71.7,29.91,SSE,160,0.0,0.0,80,0.00,CLR,,0.05,WeatherDisplay:10.37,2013-04-27 23:33:00,
2013-04-27 18:38:00,78.3,71.6,29.91,SSE,159,0.0,0.0,80,0.00,CLR,,0.05,WeatherDisplay:10.37,2013-04-27 23:38:00,
2013-04-27 18:43:00,78.3,71.6,29.91,SSE,153,1.0,0.0,80,0.00,CLR,,0.05,WeatherDisplay:10.37,2013-04-27 23:43:00,
2013-04-27 18:48:00,78.2,71.5,29.91,SSE,160,3.5,3.5,80,0.00,CLR,,0.05,WeatherDisplay:10.37,2013-04-27 23:48:00,
2013-04-27 18:53:00,78.0,71.3,29.91,SSE,153,3.5,3.5,80,0.00,CLR,,0.05,WeatherDisplay:10.37,2013-04-27 23:53:00,
2013-04-27 18:58:00,77.8,71.1,29.91,East,99,0.0,0.0,80,0.00,CLR,,0.05,WeatherDisplay:10.37,2013-04-27 23:58:00,
2013-04-27 19:03:00,77.6,71.3,29.92,ENE,67,3.5,3.9,81,0.00,CLR,,0.05,WeatherDisplay:10.37,2013-04-28 00:03:00,
2013-04-27 19:08:00,76.8,70.9,29.92,East,79,15.0,15.6,82,0.00,CLR,,0.05,WeatherDisplay:10.37,2013-04-28 00:08:00,
2013-04-27 19:13:00,74.9,70.1,29.91,East,79,11.5,11.5,85,0.00,CLR,,0.05,WeatherDisplay:10.37,2013-04-28 00:13:00,
2013-04-27 19:18:00,74.0,69.9,29.92,East,98,11.5,11.5,87,0.00,CLR,,0.05,WeatherDisplay:10.37,2013-04-28 00:18:00,
2013-04-27 19:23:00,73.4,69.6,29.93,East,94,13.8,13.8,88,0.00,CLR,,0.05,WeatherDisplay:10.37,2013-04-28 00:23:00,
2013-04-27 19:28:00,72.7,68.9,29.93,East,94,16.1,16.1,88,0.00,CLR,,0.05,WeatherDisplay:10.37,2013-04-28 00:28:00,
2013-04-27 19:33:00,72.0,68.2,29.93,East,82,11.5,11.5,88,0.00,CLR,,0.05,WeatherDisplay:10.37,2013-04-28 00:33:00,
2013-04-27 19:38:00,71.5,67.8,29.92,East,89,11.5,11.5,88,0.00,CLR,,0.05,WeatherDisplay:10.37,2013-04-28 00:38:00,
2013-04-27 19:43:00,71.1,67.7,29.92,ENE,65,10.4,10.4,89,0.00,CLR,,0.05,WeatherDisplay:10.37,2013-04-28 00:43:00,
2013-04-27 19:48:00,70.7,67.3,29.92,ENE,77,6.9,6.9,89,0.00,CLR,,0.05,WeatherDisplay:10.37,2013-04-28 00:48:00,
2013-04-27 19:53:00,70.5,66.8,29.92,East,89,9.2,9.2,88,0.00,CLR,,0.05,WeatherDisplay:10.37,2013-04-28 00:53:00,
2013-04-27 19:58:00,70.3,66.2,29.92,East,90,8.1,8.1,87,0.00,CLR,,0.05,WeatherDisplay:10.37,2013-04-28 00:58:00,
2013-04-27 20:03:00,70.2,66.1,29.92,ESE,106,6.9,6.9,87,0.00,CLR,,0.05,WeatherDisplay:10.37,2013-04-28 01:03:00,
2013-04-27 20:08:00,70.1,66.0,29.92,ENE,75,6.9,6.9,87,0.00,CLR,,0.05,WeatherDisplay:10.37,2013-04-28 01:08:00,
2013-04-27 20:13:00,70.1,66.4,29.91,ENE,78,3.5,3.5,88,0.00,CLR,,0.05,WeatherDisplay:10.37,2013-04-28 01:13:00,
2013-04-27 20:18:00,70.0,66.3,29.91,East,99,4.6,4.6,88,0.00,CLR,,0.05,WeatherDisplay:10.37,2013-04-28 01:18:00,
2013-04-27 20:23:00,69.9,66.2,29.91,ENE,78,4.6,4.6,88,0.00,CLR,,0.05,WeatherDisplay:10.37,2013-04-28 01:23:00,
2013-04-27 20:28:00,69.9,66.2,29.91,ENE,72,3.5,3.6,88,0.00,CLR,,0.05,WeatherDisplay:10.37,2013-04-28 01:28:00,
2013-04-27 20:33:00,69.8,66.4,29.91,ENE,58,5.8,5.8,89,0.00,CLR,,0.05,WeatherDisplay:10.37,2013-04-28 01:33:00,
2013-04-27 20:38:00,69.7,66.3,29.91,NE,40,9.2,9.2,89,0.00,CLR,,0.05,WeatherDisplay:10.37,2013-04-28 01:38:00,
2013-04-27 20:43:00,69.7,66.3,29.91,East,79,12.7,12.7,89,0.00,CLR,,0.05,WeatherDisplay:10.37,2013-04-28 01:43:00,
2013-04-27 20:48:00,69.7,66.6,29.92,ESE,109,15.0,15.0,90,0.00,CLR,,0.05,WeatherDisplay:10.37,2013-04-28 01:48:00,
2013-04-27 20:53:00,69.5,66.8,29.92,East,101,16.1,16.1,91,0.00,CLR,,0.05,WeatherDisplay:10.37,2013-04-28 01:53:00,
2013-04-27 20:58:00,69.2,66.5,29.93,East,87,15.0,15.0,91,0.00,CLR,,0.05,WeatherDisplay:10.37,2013-04-28 01:58:00,
2013-04-27 21:04:00,69.0,66.6,29.93,East,93,9.2,9.2,92,0.00,CLR,,0.05,WeatherDisplay:10.37,2013-04-28 02:04:00,
2013-04-27 21:09:00,68.8,66.4,29.94,East,101,11.5,11.5,92,0.00,CLR,,0.05,WeatherDisplay:10.37,2013-04-28 02:09:00,
2013-04-27 21:14:00,68.7,66.3,29.93,East,95,9.2,9.2,92,0.00,CLR,,0.05,WeatherDisplay:10.37,2013-04-28 02:14:00,
2013-04-27 21:19:00,68.7,66.3,29.94,East,83,9.2,9.2,92,0.00,CLR,,0.05,WeatherDisplay:10.37,2013-04-28 02:19:00,
2013-04-27 21:24:00,68.6,66.2,29.94,ENE,78,11.5,11.5,92,0.00,CLR,,0.05,WeatherDisplay:10.37,2013-04-28 02:24:00,
2013-04-27 21:29:00,68.6,66.2,29.96,ESE,120,11.5,11.5,92,0.00,CLR,,0.05,WeatherDisplay:10.37,2013-04-28 02:29:00,
2013-04-27 21:34:00,68.5,66.1,29.96,ESE,103,11.5,11.5,92,0.00,CLR,,0.05,WeatherDisplay:10.37,2013-04-28 02:34:00,
2013-04-27 21:39:00,68.5,66.4,29.97,ENE,60,2.3,2.3,93,0.01,RA,,0.06,WeatherDisplay:10.37,2013-04-28 02:39:00,
2013-04-27 21:44:00,68.4,66.3,29.97,East,88,3.5,3.5,93,0.01,RA,,0.06,WeatherDisplay:10.37,2013-04-28 02:44:00,
2013-04-27 21:49:00,68.4,66.3,29.95,NE,56,5.8,5.8,93,0.02,RA,,0.07,WeatherDisplay:10.37,2013-04-28 02:49:00,
2013-04-27 21:54:00,68.3,66.2,29.97,ENE,63,3.5,3.5,93,0.02,RA,,0.07,WeatherDisplay:10.37,2013-04-28 02:54:00,
2013-04-27 21:59:00,68.2,66.1,29.98,East,90,3.5,3.5,93,0.02,CLR,,0.07,WeatherDisplay:10.37,2013-04-28 02:59:00,
2013-04-27 22:04:00,68.1,66.0,29.99,SSE,153,3.5,3.5,93,0.02,CLR,,0.07,WeatherDisplay:10.37,2013-04-28 03:04:00,
2013-04-27 22:09:00,68.1,66.0,30.01,SE,136,8.1,8.1,93,0.02,CLR,,0.07,WeatherDisplay:10.37,2013-04-28 03:09:00,
2013-04-27 22:14:00,67.9,65.8,30.00,ESE,115,11.0,11.0,93,0.02,CLR,,0.07,WeatherDisplay:10.37,2013-04-28 03:14:00,
2013-04-27 22:19:00,67.8,65.7,29.99,ESE,103,11.5,11.5,93,0.02,CLR,,0.07,WeatherDisplay:10.37,2013-04-28 03:19:00,
2013-04-27 22:24:00,67.6,65.5,29.97,SE,131,16.1,16.1,93,0.02,CLR,,0.07,WeatherDisplay:10.37,2013-04-28 03:24:00,
2013-04-27 22:29:00,67.4,65.3,29.97,ESE,102,16.1,16.1,93,0.02,CLR,,0.07,WeatherDisplay:10.37,2013-04-28 03:29:00,
2013-04-27 22:34:00,67.2,65.1,29.98,ESE,117,13.8,13.8,93,0.02,CLR,,0.07,WeatherDisplay:10.37,2013-04-28 03:34:00,
2013-04-27 22:39:00,67.1,65.0,29.98,ESE,103,9.2,9.2,93,0.01,CLR,,0.07,WeatherDisplay:10.37,2013-04-28 03:39:00,
2013-04-27 22:44:00,66.9,64.8,29.98,East,99,9.2,9.2,93,0.01,CLR,,0.07,WeatherDisplay:10.37,2013-04-28 03:44:00,
2013-04-27 22:49:00,66.8,64.7,29.98,ESE,112,11.5,11.5,93,0.00,CLR,,0.07,WeatherDisplay:10.37,2013-04-28 03:49:00,
2013-04-27 22:54:00,66.7,64.6,29.98,ENE,65,6.9,6.9,93,0.00,CLR,,0.07,WeatherDisplay:10.37,2013-04-28 03:54:00,
2013-04-27 22:59:00,66.6,64.8,29.99,NE,41,3.5,3.5,94,0.00,CLR,,0.07,WeatherDisplay:10.37,2013-04-28 03:59:00,
2013-04-27 23:01:00,66.6,64.8,30.00,ENE,60,9.2,9.2,94,0.00,CLR,,0.07,WeatherDisplay:10.37,2013-04-28 04:01:00,
2013-04-27 23:02:00,66.6,64.8,30.00,ENE,67,8.1,8.1,94,0.00,CLR,,0.07,WeatherDisplay:10.37,2013-04-28 04:02:00,
2013-04-27 23:07:00,66.5,64.7,30.01,East,98,5.8,5.8,94,0.01,RA,,0.08,WeatherDisplay:10.37,2013-04-28 04:07:00,
2013-04-27 23:12:00,66.6,64.8,30.00,ESE,115,11.5,11.5,94,0.02,RA,,0.09,WeatherDisplay:10.37,2013-04-28 04:12:00,
2013-04-27 23:17:00,66.6,64.8,29.99,SE,134,12.7,12.7,94,0.03,RA,,0.10,WeatherDisplay:10.37,2013-04-28 04:17:00,
2013-04-27 23:22:00,66.5,64.7,29.99,SE,135,12.7,12.7,94,0.03,RA,,0.10,WeatherDisplay:10.37,2013-04-28 04:22:00,
2013-04-27 23:27:00,66.4,64.6,30.00,South,169,2.3,2.3,94,0.03,,,0.10,WeatherDisplay:10.37,2013-04-28 04:27:00,
2013-04-27 23:32:00,66.4,64.6,30.03,WSW,252,4.6,4.6,94,0.03,CLR,,0.10,WeatherDisplay:10.37,2013-04-28 04:32:00,
2013-04-27 23:37:00,66.6,64.8,30.04,NW,322,8.1,8.1,94,0.04,RA,,0.11,WeatherDisplay:10.37,2013-04-28 04:37:00,
2013-04-27 23:42:00,66.6,64.8,30.03,WNW,293,5.8,5.8,94,0.05,RA,,0.12,WeatherDisplay:10.37,2013-04-28 04:42:00,
2013-04-27 23:47:00,66.6,64.8,30.03,WNW,287,3.5,3.5,94,0.08,RA,,0.15,WeatherDisplay:10.37,2013-04-28 04:47:00,
2013-04-27 23:52:00,66.5,64.7,30.01,SSE,156,7.0,7.0,94,0.10,RA,,0.17,WeatherDisplay:10.37,2013-04-28 04:52:00,
2013-04-27 23:57:00,66.4,64.6,29.97,SSE,148,11.5,11.5,94,0.13,RA,,0.20,WeatherDisplay:10.37,2013-04-28 04:57:00,